Arvika, Sweden

9:23 PM CEST on July 23, 2014 (GMT +0200)
IVRMLAND3 Elev 453 ft | 59.73 °N, 13.06 °E | Change Station

Current weather conditions updated 8 minutes ago

Clear
Clear
74.1 °F
Feels Like 76 °F
N
2.2
Wind Variable Wind from South
Gusts 3.1 mph

Tomorrow is forecast to be Cooler than today. Thunderstorms likely early tomorrow night.

Today
High -- | Low -- °F
--% Chance of Precip.
Yesterday
High -- | Low -- °F
Precip. -- in
4:31 AM 9:58 PM
Waning Crescent, 9% visible
Pressure 30.21 in
Visibility -9999.0 miles
Clouds
Heat Index 76 °F
Dew Point 63 °F
Humidity 69%
Rainfall 0.00 in
Snow Depth Not available.
UV Not available.
Pollen Not available.
Air Quality Not available.
Flu Activity Not available.
METAR ESOK 231850Z 22004KT CAVOK 24/11 Q1023

More Conditions Fewer Conditions

Pressure 30.21 in
Visibility -9999.0 miles
Clouds
Heat Index 76 °F
Dew Point 63 °F
Humidity 69%
Rainfall 0.00 in
Snow Depth Not available.
UV Not available.
Pollen Not available.
Air Quality Not available.
Flu Activity Not available.
METAR ESOK 231850Z 22004KT CAVOK 24/11 Q1023

More Conditions Fewer Conditions

10-Day Weather Forecast

Almanac

Astronomy

Jul. 23, 2014 Rise Set
Actual Time 4:31 AM CEST 9:58 PM CEST
Civil Twilight 3:24 AM CEST 11:04 PM CEST
Nautical Twilight 1:48 AM CEST 12:43 AM CEST
Astronomical Twilight Sun does not rise Sun does not rise
Moon 1:47 AM CEST 7:05 PM CEST
Length of Visible Light 19h 40m
Length of Day
17h 26m
Tomorrow will be 4m 17s shorter.
Waning Crescent, 9% of the Moon is Illuminated
Today
Waning Crescent
Jul 26
New
Aug 3
First Quarter
Aug 10
Full
Aug 17
Last Quarter

Today's Extremes

Country Highs Country Lows

Community

WunderPhotos

Upload Photos

1,736,734 photos uploaded!

Nearby

Snow Depth

Not available.

Earthquake Activity

City Distance Mag. Time & Date
No recent earthquake activity has been reported nearby.
Minimum magnitude displayed is 2.5.

Coastal Water Temperatures

Place Temperature
No Stations Reporting

Nearby Weather Stations

Station Location Temp. Heat Index Dew Point Humidity Wind Precip. Elev Updated Type
Vastra Amtervik 74.1 °F 76 °F 63 °F 69% South  at  2.2 mph 0.00 in / hr 453 ft 9:14 PM CEST Normal
Lantbruksområde, V�rmlands L�n 74.3 °F 77 °F 57 °F 54% ESE  at  0.0 mph 0.00 in / hr 341 ft 9:15 PM CEST Normal
Frykfors, Kil 75.6 °F 78 °F 59 °F 57% South  at  0.0 mph 0.00 in / hr 299 ft 9:23 PM CEST Rapid Fire

Show More Stations Show Fewer Stations